createdAt,value
2018-02-11T00:02:22.611Z,73.90
2018-02-11T00:04:50.130Z,73.70
2018-02-11T00:07:17.659Z,73.60
2018-02-11T00:09:45.157Z,73.70
2018-02-11T00:12:12.673Z,74.00
2018-02-11T00:14:40.164Z,73.90
2018-02-11T00:17:07.721Z,73.60
2018-02-11T00:19:35.220Z,73.60
2018-02-11T00:22:03.034Z,73.10
2018-02-11T00:24:30.543Z,73.10
2018-02-11T00:26:58.071Z,73.20
2018-02-11T00:29:25.591Z,72.80
2018-02-11T00:31:53.104Z,72.60
2018-02-11T00:34:20.614Z,72.50
2018-02-11T00:36:54.013Z,72.30
2018-02-11T00:39:21.546Z,72.00
2018-02-11T00:41:49.126Z,72.10
2018-02-11T00:44:16.690Z,72.10
2018-02-11T00:46:45.024Z,71.50
2018-02-11T00:49:12.546Z,71.50
2018-02-11T00:51:40.081Z,71.80
2018-02-11T00:54:07.599Z,71.90
2018-02-11T00:56:35.880Z,71.70
2018-02-11T00:59:03.406Z,71.70
2018-02-11T01:01:31.100Z,71.70
2018-02-11T01:03:58.628Z,71.80
2018-02-11T01:06:26.153Z,72.40
2018-02-11T01:08:53.662Z,71.90
2018-02-11T01:11:21.162Z,71.60
2018-02-11T01:13:49.441Z,71.00
2018-02-11T01:16:17.740Z,70.80
2018-02-11T01:18:45.292Z,70.80
2018-02-11T01:21:13.562Z,70.60
2018-02-11T01:23:41.837Z,70.80
2018-02-11T01:26:09.885Z,70.70
2018-02-11T01:28:37.393Z,71.00
2018-02-11T01:31:05.688Z,71.10
2018-02-11T01:33:33.232Z,71.10
2018-02-11T01:36:01.508Z,71.80
2018-02-11T01:38:30.631Z,72.00
2018-02-11T01:40:58.157Z,71.90
2018-02-11T01:43:25.687Z,71.80
2018-02-11T01:45:53.201Z,71.60
2018-02-11T01:48:21.495Z,71.50
2018-02-11T01:50:49.773Z,71.60
2018-02-11T01:53:18.045Z,71.60
2018-02-11T01:55:46.101Z,71.50
2018-02-11T01:58:13.610Z,71.60
2018-02-11T02:00:41.858Z,72.10
2018-02-11T02:03:10.125Z,72.10
2018-02-11T02:05:37.639Z,72.00
2018-02-11T02:08:05.135Z,71.80
2018-02-11T02:10:32.640Z,71.50
2018-02-11T02:13:00.914Z,71.20
2018-02-11T02:15:29.214Z,71.20
2018-02-11T02:17:56.735Z,71.20
2018-02-11T02:20:24.222Z,71.40
2018-02-11T02:22:52.497Z,71.60
2018-02-11T02:25:20.795Z,71.60
2018-02-11T02:27:49.080Z,71.70
2018-02-11T02:30:16.601Z,71.60
2018-02-11T02:32:44.123Z,71.80
2018-02-11T02:35:11.661Z,72.00
2018-02-11T02:37:39.938Z,72.40
2018-02-11T02:40:09.041Z,72.50
2018-02-11T02:42:37.319Z,72.40
2018-02-11T02:45:05.622Z,72.70
2018-02-11T02:47:33.110Z,72.60
2018-02-11T02:50:00.694Z,73.50
2018-02-11T02:52:28.199Z,72.70
2018-02-11T02:54:56.472Z,72.70
2018-02-11T02:57:24.748Z,72.80
2018-02-11T02:59:53.053Z,73.10
2018-02-11T03:02:20.583Z,73.10
2018-02-11T03:04:48.073Z,73.30
2018-02-11T03:07:17.413Z,73.30
2018-02-11T03:09:44.931Z,73.30
2018-02-11T03:12:13.214Z,73.10
2018-02-11T03:14:41.481Z,73.00
2018-02-11T03:17:09.756Z,73.00
2018-02-11T03:19:37.256Z,72.80
2018-02-11T03:22:04.780Z,72.70
2018-02-11T03:24:32.273Z,72.70
2018-02-11T03:27:00.536Z,72.30
2018-02-11T03:29:28.822Z,72.50
2018-02-11T03:31:57.123Z,72.70
2018-02-11T03:34:24.620Z,72.60
2018-02-11T03:36:52.147Z,72.80
2018-02-11T03:39:19.637Z,72.90
2018-02-11T03:41:47.185Z,73.00
2018-02-11T03:44:15.065Z,73.00
2018-02-11T03:46:42.591Z,73.20
2018-02-11T03:49:10.876Z,73.50
2018-02-11T03:51:39.175Z,73.40
2018-02-11T03:54:06.676Z,73.40
2018-02-11T03:56:34.189Z,73.60
2018-02-11T03:59:02.467Z,73.80
2018-02-11T04:01:30.726Z,73.70
2018-02-11T04:03:58.244Z,73.60
2018-02-11T04:06:25.743Z,74.00
2018-02-11T04:08:53.259Z,74.00
2018-02-11T04:11:20.780Z,74.00
2018-02-11T04:13:48.283Z,74.10
2018-02-11T04:16:15.828Z,74.20
2018-02-11T04:18:44.100Z,74.20
2018-02-11T04:21:11.608Z,74.20
2018-02-11T04:23:39.116Z,74.40
2018-02-11T04:26:06.628Z,74.50
2018-02-11T04:28:34.302Z,74.10
2018-02-11T04:31:01.789Z,74.00
2018-02-11T04:33:29.288Z,74.20
2018-02-11T04:35:57.549Z,73.90
2018-02-11T04:38:25.044Z,73.90
2018-02-11T04:40:52.548Z,73.70
2018-02-11T04:43:20.064Z,73.60
2018-02-11T04:45:47.579Z,73.70
2018-02-11T04:48:15.089Z,73.70
2018-02-11T04:50:43.393Z,73.80
2018-02-11T04:53:10.911Z,73.80
2018-02-11T04:55:38.409Z,74.00
2018-02-11T04:58:05.920Z,74.00
2018-02-11T05:00:33.412Z,73.80
2018-02-11T05:03:01.721Z,73.80
2018-02-11T05:05:29.221Z,73.80
2018-02-11T05:07:56.736Z,73.80
2018-02-11T05:10:24.960Z,73.60
2018-02-11T05:12:52.473Z,73.80
2018-02-11T05:15:20.753Z,73.70
2018-02-11T05:17:49.028Z,73.90
2018-02-11T05:20:17.301Z,74.10
2018-02-11T05:22:45.573Z,74.00
2018-02-11T05:25:13.072Z,74.00
2018-02-11T05:27:40.980Z,73.90
2018-02-11T05:30:08.489Z,74.00
2018-02-11T05:32:36.017Z,74.10
2018-02-11T05:35:03.520Z,74.20
2018-02-11T05:37:31.878Z,74.30
2018-02-11T05:40:00.186Z,74.50
2018-02-11T05:42:27.734Z,74.30
2018-02-11T05:44:56.014Z,74.10
2018-02-11T05:47:24.841Z,74.00
2018-02-11T05:49:52.353Z,73.90
2018-02-11T05:52:19.852Z,73.60
2018-02-11T05:54:47.408Z,73.70
2018-02-11T05:57:15.693Z,73.40
2018-02-11T05:59:43.975Z,73.40
2018-02-11T06:02:12.249Z,73.40
2018-02-11T06:04:39.797Z,73.40
2018-02-11T06:07:08.114Z,74.20
2018-02-11T06:09:35.631Z,73.50
2018-02-11T06:12:03.158Z,73.70
2018-02-11T06:14:30.683Z,74.10
2018-02-11T06:16:58.995Z,74.00
2018-02-11T06:19:26.520Z,73.80
2018-02-11T06:21:55.028Z,74.00
2018-02-11T06:24:22.562Z,74.00
2018-02-11T06:26:50.056Z,73.90
2018-02-11T06:29:17.604Z,73.70
2018-02-11T06:31:45.919Z,73.70
2018-02-11T06:34:13.477Z,73.70
2018-02-11T06:36:41.202Z,73.70
2018-02-11T06:39:08.733Z,73.60
2018-02-11T06:41:36.230Z,73.50
2018-02-11T06:44:03.753Z,73.40
2018-02-11T06:46:31.270Z,73.40
2018-02-11T06:48:59.545Z,73.30
2018-02-11T06:51:27.073Z,73.30
2018-02-11T06:53:54.616Z,73.60
2018-02-11T06:56:22.166Z,73.40
2018-02-11T06:58:49.648Z,73.30
2018-02-11T07:01:17.189Z,73.30
2018-02-11T07:03:44.691Z,73.10
2018-02-11T07:06:12.210Z,73.00
2018-02-11T07:08:40.468Z,72.50
2018-02-11T07:11:07.985Z,72.50
2018-02-11T07:13:36.332Z,72.50
2018-02-11T07:16:04.614Z,72.10
2018-02-11T07:18:32.878Z,71.80
2018-02-11T07:21:01.189Z,71.70
2018-02-11T07:23:28.672Z,71.70
2018-02-11T07:25:56.187Z,71.50
2018-02-11T07:28:24.460Z,71.10
2018-02-11T07:30:51.989Z,71.00
2018-02-11T07:33:20.310Z,71.70
2018-02-11T07:35:49.747Z,70.30
2018-02-11T07:38:17.252Z,70.30
2018-02-11T07:40:44.758Z,70.00
2018-02-11T07:43:13.061Z,69.30
2018-02-11T07:45:40.621Z,69.30
2018-02-11T07:48:08.140Z,69.00
2018-02-11T07:50:35.867Z,68.00
2018-02-11T07:53:03.455Z,67.00
2018-02-11T07:55:30.998Z,66.60
2018-02-11T07:57:58.517Z,66.60
2018-02-11T08:00:26.819Z,66.00
2018-02-11T08:02:54.362Z,66.00
2018-02-11T08:05:22.669Z,66.60
2018-02-11T08:07:50.243Z,66.50
2018-02-11T08:10:17.774Z,66.50
2018-02-11T08:12:46.054Z,66.70
2018-02-11T08:15:13.609Z,66.60
2018-02-11T08:17:41.192Z,66.40
2018-02-11T08:20:09.476Z,66.80
2018-02-11T08:22:37.008Z,66.60
2018-02-11T08:25:04.575Z,67.00
2018-02-11T08:27:32.121Z,67.10
2018-02-11T08:29:59.651Z,67.00
2018-02-11T08:32:27.174Z,66.50
2018-02-11T08:34:55.488Z,65.80
2018-02-11T08:37:22.992Z,65.80
2018-02-11T08:39:50.519Z,65.80
2018-02-11T08:42:18.028Z,66.00
2018-02-11T08:44:45.547Z,65.90
2018-02-11T08:47:13.058Z,66.10
2018-02-11T08:49:41.057Z,65.80
2018-02-11T08:52:09.356Z,65.50
2018-02-11T08:54:36.903Z,65.50
2018-02-11T08:57:05.406Z,64.40
2018-02-11T08:59:32.930Z,64.40
2018-02-11T09:02:00.623Z,63.90
2018-02-11T09:04:28.894Z,63.40
2018-02-11T09:06:57.174Z,62.60
2018-02-11T09:09:25.512Z,62.50
2018-02-11T09:11:53.062Z,62.40
2018-02-11T09:14:21.107Z,61.90
2018-02-11T09:16:48.643Z,61.70
2018-02-11T09:19:16.160Z,61.60
2018-02-11T09:21:43.670Z,61.60
2018-02-11T09:24:11.218Z,61.40
2018-02-11T09:26:38.736Z,60.50
2018-02-11T09:29:06.242Z,60.00
2018-02-11T09:31:33.856Z,59.60
2018-02-11T09:34:02.140Z,59.30
2018-02-11T09:36:29.688Z,59.20
2018-02-11T09:38:58.105Z,59.10
2018-02-11T09:41:25.628Z,59.10
2018-02-11T09:43:53.167Z,59.40
2018-02-11T09:46:20.674Z,59.60
2018-02-11T09:48:48.937Z,58.80
2018-02-11T09:51:16.446Z,58.70
2018-02-11T09:53:43.978Z,58.40
2018-02-11T09:56:11.470Z,57.90
2018-02-11T09:58:38.977Z,57.80
2018-02-11T10:01:06.558Z,57.60
2018-02-11T10:03:34.068Z,57.20
2018-02-11T10:06:01.613Z,57.50
2018-02-11T10:08:29.950Z,56.80
2018-02-11T10:10:57.622Z,56.80
2018-02-11T10:13:25.126Z,56.80
2018-02-11T10:15:53.417Z,57.10
2018-02-11T10:18:20.974Z,57.00
2018-02-11T10:20:48.478Z,56.80
2018-02-11T10:23:15.997Z,56.40
2018-02-11T10:25:44.780Z,56.00
2018-02-11T10:28:13.063Z,56.00
2018-02-11T10:30:40.564Z,56.00
2018-02-11T10:33:08.088Z,55.80
2018-02-11T10:35:36.405Z,55.50
2018-02-11T10:38:03.946Z,55.40
2018-02-11T10:40:31.496Z,54.80
2018-02-11T10:42:59.788Z,54.80
2018-02-11T10:45:27.345Z,54.80
2018-02-11T10:47:55.626Z,54.40
2018-02-11T10:50:24.474Z,54.30
2018-02-11T10:52:51.996Z,54.20
2018-02-11T10:55:19.502Z,53.70
2018-02-11T10:57:47.572Z,53.40
2018-02-11T11:00:15.068Z,53.60
2018-02-11T11:02:43.411Z,54.00
2018-02-11T11:05:10.917Z,54.00
2018-02-11T11:07:39.216Z,53.80
2018-02-11T11:10:07.765Z,54.40
2018-02-11T11:12:35.285Z,54.40
2018-02-11T11:15:02.784Z,54.90
2018-02-11T11:17:30.376Z,55.40
2018-02-11T11:19:58.683Z,55.80
2018-02-11T11:22:26.188Z,55.80
2018-02-11T11:24:53.706Z,57.70
2018-02-11T11:27:21.260Z,59.10
2018-02-11T11:29:49.524Z,60.80
2018-02-11T11:32:17.030Z,60.70
2018-02-11T11:34:44.539Z,60.00
2018-02-11T11:37:12.073Z,59.70
2018-02-11T11:39:39.577Z,59.80
2018-02-11T11:42:07.860Z,61.20
2018-02-11T11:44:35.384Z,60.40
2018-02-11T11:47:02.899Z,60.80
2018-02-11T11:49:31.169Z,60.60
2018-02-11T11:51:59.453Z,60.40
2018-02-11T11:54:27.723Z,61.00
2018-02-11T11:56:55.227Z,60.90
2018-02-11T11:59:23.731Z,61.00
2018-02-11T12:01:51.245Z,60.50
2018-02-11T12:04:19.528Z,60.00
2018-02-11T12:06:47.861Z,60.00
2018-02-11T12:09:15.367Z,60.00
2018-02-11T12:11:43.661Z,60.00
2018-02-11T12:14:11.949Z,60.60
2018-02-11T12:16:39.496Z,60.60
2018-02-11T12:19:07.787Z,60.60
2018-02-11T12:21:36.070Z,60.80
2018-02-11T12:24:04.136Z,60.80
2018-02-11T12:26:32.394Z,61.80
2018-02-11T12:28:59.931Z,61.80
2018-02-11T12:31:27.428Z,62.40
2018-02-11T12:33:54.968Z,63.40
2018-02-11T12:36:22.480Z,65.80
2018-02-11T12:38:50.782Z,68.60
2018-02-11T12:41:18.345Z,68.50
2018-02-11T12:43:45.858Z,68.50
2018-02-11T12:46:13.390Z,69.10
2018-02-11T12:48:41.365Z,70.40
2018-02-11T12:51:08.885Z,70.20
2018-02-11T12:53:37.502Z,70.80
2018-02-11T12:56:05.001Z,70.80
2018-02-11T12:58:32.510Z,70.60
2018-02-11T13:01:00.831Z,71.60
2018-02-11T13:03:28.416Z,71.50
2018-02-11T13:05:55.963Z,71.60
2018-02-11T13:08:23.480Z,72.70
2018-02-11T13:10:51.799Z,73.40
2018-02-11T13:13:19.303Z,73.40
2018-02-11T13:15:46.839Z,73.80
2018-02-11T13:18:14.548Z,74.50
2018-02-11T13:20:42.085Z,74.20
2018-02-11T13:23:09.577Z,73.70
2018-02-11T13:25:37.891Z,73.70
2018-02-11T13:28:05.426Z,73.90
2018-02-11T13:30:33.721Z,74.10
2018-02-11T13:33:01.239Z,74.10
2018-02-11T13:35:28.837Z,75.10
2018-02-11T13:37:57.114Z,75.10
2018-02-11T13:40:25.596Z,75.90
2018-02-11T13:42:54.694Z,76.50
2018-02-11T13:45:23.007Z,76.50
2018-02-11T13:47:50.570Z,76.50
2018-02-11T13:50:18.108Z,76.40
2018-02-11T13:52:45.620Z,76.50
2018-02-11T13:55:13.133Z,76.80
2018-02-11T13:57:41.522Z,77.30
2018-02-11T14:00:09.833Z,79.00
2018-02-11T14:02:37.348Z,79.00
2018-02-11T14:05:05.634Z,79.80
2018-02-11T14:07:33.989Z,78.90
2018-02-11T14:10:01.536Z,78.90
2018-02-11T14:12:29.067Z,78.70
2018-02-11T14:14:56.649Z,78.50
2018-02-11T14:17:24.188Z,79.10
2018-02-11T14:19:52.512Z,81.50
2018-02-11T14:22:20.044Z,81.60
2018-02-11T14:24:47.775Z,82.00
2018-02-11T14:27:15.798Z,83.50
2018-02-11T14:29:43.358Z,82.60
2018-02-11T14:32:10.970Z,83.10
2018-02-11T14:34:38.541Z,83.50
2018-02-11T14:37:06.822Z,83.90
2018-02-11T14:39:34.465Z,84.10
2018-02-11T14:42:02.049Z,83.70
2018-02-11T14:44:29.565Z,82.90
2018-02-11T14:46:57.105Z,82.80
2018-02-11T14:49:26.805Z,83.60
2018-02-11T14:51:54.647Z,83.50
2018-02-11T14:54:22.988Z,82.60
2018-02-11T14:56:50.497Z,83.30
2018-02-11T14:59:18.009Z,83.10
2018-02-11T15:01:45.637Z,82.80
2018-02-11T15:04:13.937Z,82.50
2018-02-11T15:06:42.260Z,83.80
2018-02-11T15:09:09.826Z,83.70
2018-02-11T15:11:37.411Z,83.60
2018-02-11T15:14:04.970Z,84.80
2018-02-11T15:16:32.469Z,85.60
2018-02-11T15:19:00.809Z,84.30
2018-02-11T15:21:28.328Z,84.20
2018-02-11T15:23:56.705Z,84.00
2018-02-11T15:26:25.016Z,84.00
2018-02-11T15:28:52.539Z,84.00
2018-02-11T15:33:54.725Z,82.60
2018-02-11T15:36:23.021Z,82.50
2018-02-11T15:38:51.313Z,82.40
2018-02-11T15:41:19.595Z,81.90
2018-02-11T15:43:47.865Z,81.90
2018-02-11T15:46:16.243Z,82.20
2018-02-11T15:48:44.538Z,81.90
2018-02-11T15:51:12.838Z,81.80
2018-02-11T15:53:40.409Z,81.70
2018-02-11T15:56:07.921Z,82.00
2018-02-11T15:58:35.427Z,82.10
2018-02-11T16:01:02.963Z,82.30
2018-02-11T16:03:31.245Z,81.80
2018-02-11T16:06:00.233Z,81.50
2018-02-11T16:08:28.510Z,81.70
2018-02-11T16:10:56.881Z,81.80
2018-02-11T16:13:24.425Z,81.70
2018-02-11T16:15:51.976Z,81.60
2018-02-11T16:18:19.552Z,81.50
2018-02-11T16:20:47.053Z,81.50
2018-02-11T16:23:15.864Z,81.60
2018-02-11T16:25:44.137Z,81.20
2018-02-11T16:28:12.461Z,80.60
2018-02-11T16:30:40.031Z,80.60
2018-02-11T16:33:07.864Z,80.90
2018-02-11T16:35:35.359Z,80.80
2018-02-11T16:38:02.853Z,80.40
2018-02-11T16:40:30.374Z,80.00
2018-02-11T16:42:57.877Z,80.10
2018-02-11T16:45:25.433Z,80.10
2018-02-11T16:47:52.931Z,79.50
2018-02-11T16:50:21.341Z,79.80
2018-02-11T16:52:48.838Z,79.80
2018-02-11T16:55:16.367Z,79.70
2018-02-11T16:57:43.939Z,79.70
2018-02-11T17:00:11.470Z,79.50
2018-02-11T17:02:39.976Z,79.70
2018-02-11T17:05:07.543Z,79.70
2018-02-11T17:07:35.066Z,79.30
2018-02-11T17:10:03.119Z,79.50
2018-02-11T17:12:31.131Z,79.30
2018-02-11T17:14:58.641Z,79.40
2018-02-11T17:17:26.425Z,79.20
2018-02-11T17:19:54.312Z,78.90
2018-02-11T17:22:23.584Z,79.60
2018-02-11T17:24:51.205Z,78.80
2018-02-11T17:27:22.220Z,78.70
2018-02-11T17:29:49.803Z,78.70
2018-02-11T17:32:17.560Z,78.80
2018-02-11T17:34:45.085Z,78.30
2018-02-11T17:37:12.718Z,78.30
2018-02-11T17:39:41.097Z,78.10
2018-02-11T17:42:09.423Z,78.10
2018-02-11T17:44:37.248Z,78.00
2018-02-11T17:47:05.523Z,78.60
2018-02-11T17:49:33.816Z,78.90
2018-02-11T17:52:02.287Z,78.90
2018-02-11T17:54:31.511Z,78.80
2018-02-11T17:57:00.021Z,78.50
2018-02-11T17:59:27.517Z,78.40
2018-02-11T18:01:55.186Z,78.30
2018-02-11T18:04:22.715Z,78.10
2018-02-11T18:06:50.306Z,77.90
2018-02-11T18:09:18.679Z,77.80
2018-02-11T18:11:50.671Z,77.80
2018-02-11T18:14:21.102Z,77.50
2018-02-11T18:16:49.718Z,76.90
2018-02-11T18:19:18.069Z,76.90
2018-02-11T18:21:45.593Z,76.70
2018-02-11T18:24:13.149Z,76.90
2018-02-11T18:26:40.706Z,76.40
2018-02-11T18:29:08.230Z,76.30
2018-02-11T18:31:35.789Z,76.00
2018-02-11T18:34:03.324Z,76.60
2018-02-11T18:36:30.861Z,75.70
2018-02-11T18:38:58.477Z,75.90
2018-02-11T18:41:26.032Z,76.20
2018-02-11T18:43:53.549Z,76.30
2018-02-11T18:46:21.504Z,76.00
2018-02-11T18:48:49.795Z,75.50
2018-02-11T18:51:18.277Z,75.20
2018-02-11T18:53:45.808Z,75.20
2018-02-11T18:56:13.322Z,75.20
2018-02-11T18:58:40.908Z,75.30
2018-02-11T19:01:08.489Z,75.00
2018-02-11T19:03:36.034Z,75.40
2018-02-11T19:06:03.709Z,75.10
2018-02-11T19:08:31.257Z,74.90
2018-02-11T19:10:58.838Z,74.80
2018-02-11T19:13:26.371Z,74.40
2018-02-11T19:15:53.994Z,74.80
2018-02-11T19:18:22.749Z,74.90
2018-02-11T19:20:51.961Z,74.50
2018-02-11T19:23:19.535Z,74.30
2018-02-11T19:25:47.050Z,74.60
2018-02-11T19:28:15.351Z,74.80
2018-02-11T19:30:43.137Z,74.80
2018-02-11T19:33:10.660Z,75.00
2018-02-11T19:35:38.965Z,74.80
2018-02-11T19:38:06.492Z,74.80
2018-02-11T19:40:34.785Z,74.00
2018-02-11T19:43:03.143Z,74.20
2018-02-11T19:45:30.706Z,74.20
2018-02-11T19:47:58.292Z,74.70
2018-02-11T19:50:26.585Z,74.40
2018-02-11T19:52:54.528Z,74.40
2018-02-11T19:55:22.045Z,74.30
2018-02-11T19:57:49.567Z,74.70
2018-02-11T20:00:19.357Z,74.80
2018-02-11T20:02:46.880Z,74.80
2018-02-11T20:05:15.208Z,74.90
2018-02-11T20:07:42.763Z,74.90
2018-02-11T20:10:10.270Z,75.20
2018-02-11T20:12:38.576Z,75.50
2018-02-11T20:15:06.120Z,75.40
2018-02-11T20:17:33.731Z,74.90
2018-02-11T20:20:01.305Z,74.90
2018-02-11T20:22:29.763Z,74.70
2018-02-11T20:24:57.309Z,75.00
2018-02-11T20:27:24.979Z,75.10
2018-02-11T20:29:52.505Z,75.50
2018-02-11T20:32:20.113Z,75.80
2018-02-11T20:34:47.649Z,75.90
2018-02-11T20:37:16.445Z,75.80
2018-02-11T20:39:43.978Z,75.80
2018-02-11T20:42:12.415Z,75.50
2018-02-11T20:44:39.985Z,75.50
2018-02-11T20:47:07.500Z,75.40
2018-02-11T20:49:36.083Z,76.00
2018-02-11T20:52:04.555Z,76.20
2018-02-11T20:54:32.155Z,76.20
2018-02-11T20:56:59.708Z,75.50
2018-02-11T20:59:27.986Z,75.60
2018-02-11T21:01:56.330Z,76.00
2018-02-11T21:04:23.869Z,76.00
2018-02-11T21:06:51.472Z,76.20
2018-02-11T21:09:19.016Z,76.50
2018-02-11T21:11:46.529Z,76.90
2018-02-11T21:14:14.842Z,77.00
2018-02-11T21:16:42.366Z,77.00
2018-02-11T21:19:09.912Z,77.40
2018-02-11T21:21:37.503Z,77.90
2018-02-11T21:24:05.850Z,78.00
2018-02-11T21:26:33.366Z,78.00
2018-02-11T21:29:01.707Z,78.00
2018-02-11T21:31:30.528Z,78.00
2018-02-11T21:33:58.081Z,78.00
2018-02-11T21:36:25.603Z,78.10
2018-02-11T21:38:53.206Z,78.40
2018-02-11T21:41:20.812Z,78.60
2018-02-11T21:43:48.874Z,78.90
2018-02-11T21:46:16.389Z,78.80
2018-02-11T21:48:44.161Z,78.60
2018-02-11T21:51:11.673Z,79.80
2018-02-11T21:53:39.216Z,79.00
2018-02-11T21:56:06.740Z,79.00
2018-02-11T21:58:34.261Z,79.50
2018-02-11T22:01:02.479Z,79.40
2018-02-11T22:03:29.988Z,79.50
2018-02-11T22:05:58.307Z,79.60
2018-02-11T22:08:25.844Z,79.60
2018-02-11T22:10:53.539Z,79.50
2018-02-11T22:13:21.111Z,79.40
2018-02-11T22:15:49.456Z,78.90
2018-02-11T22:18:17.721Z,79.20
2018-02-11T22:20:45.221Z,79.20
2018-02-11T22:23:12.732Z,79.10
2018-02-11T22:25:40.257Z,79.40
2018-02-11T22:28:07.747Z,79.50
2018-02-11T22:30:36.779Z,79.90
2018-02-11T22:33:05.060Z,80.30
2018-02-11T22:35:32.577Z,80.30
2018-02-11T22:38:00.091Z,80.10
2018-02-11T22:40:28.403Z,80.50
2018-02-11T22:42:55.951Z,80.40
2018-02-11T22:45:23.460Z,80.30
2018-02-11T22:47:51.060Z,80.20
2018-02-11T22:50:19.353Z,80.10
2018-02-11T22:52:47.621Z,79.50
2018-02-11T22:55:15.271Z,79.50
2018-02-11T22:57:45.975Z,79.30
2018-02-11T23:00:13.494Z,79.20
2018-02-11T23:02:41.029Z,79.00
2018-02-11T23:05:08.551Z,79.10
2018-02-11T23:07:36.044Z,79.20
2018-02-11T23:10:03.567Z,79.50
2018-02-11T23:12:31.168Z,79.30
2018-02-11T23:14:58.683Z,79.70
2018-02-11T23:17:26.964Z,80.10
2018-02-11T23:19:55.249Z,80.40
2018-02-11T23:22:23.525Z,80.20
2018-02-11T23:24:51.833Z,80.00
2018-02-11T23:27:19.394Z,79.90
2018-02-11T23:29:47.507Z,80.10
2018-02-11T23:32:15.920Z,80.00
2018-02-11T23:34:43.436Z,80.00
2018-02-11T23:37:10.921Z,80.50
2018-02-11T23:39:38.452Z,80.40
2018-02-11T23:42:06.937Z,80.30
2018-02-11T23:44:34.460Z,80.30
2018-02-11T23:47:02.205Z,80.60
2018-02-11T23:49:30.090Z,80.80
2018-02-11T23:51:57.597Z,80.80
2018-02-11T23:54:25.106Z,80.60
2018-02-11T23:56:52.647Z,80.60
2018-02-11T23:59:21.109Z,81.40
